createdAt,value
2018-04-10T00:00:21.109Z,28.90
2018-04-10T00:02:48.856Z,30.40
2018-04-10T00:05:16.554Z,29.40
2018-04-10T00:07:44.144Z,27.53
2018-04-10T00:10:11.947Z,30.33
2018-04-10T00:12:39.635Z,27.40
2018-04-10T00:15:07.370Z,29.40
2018-04-10T00:17:34.984Z,28.63
2018-04-10T00:20:03.470Z,28.50
2018-04-10T00:22:31.838Z,27.97
2018-04-10T00:25:00.221Z,28.00
2018-04-10T00:27:28.618Z,26.50
2018-04-10T00:29:56.325Z,25.97
2018-04-10T00:32:23.995Z,23.77
2018-04-10T00:34:51.762Z,26.00
2018-04-10T00:37:19.422Z,24.47
2018-04-10T00:39:47.076Z,27.03
2018-04-10T00:42:14.739Z,26.30
2018-04-10T00:44:42.437Z,27.70
2018-04-10T00:47:10.967Z,24.47
2018-04-10T00:49:38.642Z,24.57
2018-04-10T00:52:06.313Z,23.83
2018-04-10T00:54:35.471Z,24.03
2018-04-10T00:57:03.122Z,24.33
2018-04-10T00:59:30.739Z,24.53
2018-04-10T01:01:58.485Z,24.50
2018-04-10T01:04:26.113Z,24.73
2018-04-10T01:06:53.823Z,24.50
2018-04-10T01:09:21.486Z,23.67
2018-04-10T01:11:49.099Z,23.00
2018-04-10T01:14:16.715Z,24.80
2018-04-10T01:16:44.306Z,23.40
2018-04-10T01:19:11.929Z,22.93
2018-04-10T01:21:39.519Z,21.40
2018-04-10T01:24:07.908Z,20.07
2018-04-10T01:26:35.502Z,20.90
2018-04-10T01:29:03.119Z,19.77
2018-04-10T01:31:31.474Z,20.80
2018-04-10T01:33:59.091Z,18.27
2018-04-10T01:36:26.682Z,19.57
2018-04-10T01:38:54.306Z,20.10
2018-04-10T01:41:21.986Z,19.77
2018-04-10T01:43:49.605Z,20.40
2018-04-10T01:46:17.958Z,20.77
2018-04-10T01:48:45.574Z,19.23
2018-04-10T01:51:13.170Z,20.70
2018-04-10T01:53:40.795Z,20.13
2018-04-10T01:56:08.394Z,18.70
2018-04-10T01:58:36.013Z,17.57
2018-04-10T02:01:03.601Z,17.73
2018-04-10T02:03:31.223Z,18.80
2018-04-10T02:05:58.826Z,20.57
2018-04-10T02:08:26.453Z,20.00
2018-04-10T02:10:54.054Z,18.33
2018-04-10T02:21:54.189Z,19.00
2018-04-10T02:24:21.806Z,19.07
2018-04-10T02:26:49.410Z,18.40
2018-04-10T02:29:17.039Z,18.80
2018-04-10T02:31:45.410Z,19.03
2018-04-10T02:34:13.054Z,18.87
2018-04-10T02:36:40.655Z,19.73
2018-04-10T02:39:09.010Z,20.17
2018-04-10T02:41:36.631Z,18.20
2018-04-10T02:44:04.219Z,19.83
2018-04-10T02:46:31.838Z,20.17
2018-04-10T02:48:59.425Z,19.47
2018-04-10T02:51:27.040Z,18.93
2018-04-10T02:53:54.634Z,19.30
2018-04-10T02:56:22.261Z,19.90
2018-04-10T02:58:50.641Z,19.63
2018-04-10T03:01:19.041Z,19.70
2018-04-10T03:03:46.629Z,19.90
2018-04-10T03:06:14.223Z,19.00
2018-04-10T03:08:42.611Z,18.30
2018-04-10T03:11:10.964Z,18.20
2018-04-10T03:13:38.577Z,20.63
2018-04-10T03:16:06.170Z,19.53
2018-04-10T03:18:33.793Z,20.23
2018-04-10T03:21:01.385Z,20.13
2018-04-10T03:23:28.972Z,18.00
2018-04-10T03:25:56.595Z,19.50
2018-04-10T03:28:24.190Z,20.23
2018-04-10T03:30:51.822Z,18.70
2018-04-10T03:33:19.418Z,18.27
2018-04-10T03:35:47.011Z,18.93
2018-04-10T03:38:14.638Z,19.80
2018-04-10T03:40:42.221Z,19.63
2018-04-10T03:43:10.602Z,19.57
2018-04-10T03:45:38.968Z,18.40
2018-04-10T03:48:07.350Z,18.53
2018-04-10T03:50:35.710Z,21.23
2018-04-10T03:53:03.325Z,23.93
2018-04-10T03:55:30.914Z,22.13
2018-04-10T03:57:58.532Z,20.70
2018-04-10T04:00:26.121Z,21.20
2018-04-10T04:02:53.736Z,19.83
2018-04-10T04:05:22.099Z,18.73
2018-04-10T04:07:49.715Z,21.37
2018-04-10T04:10:17.309Z,21.00
2018-04-10T04:12:44.894Z,18.83
2018-04-10T04:15:13.281Z,18.87
2018-04-10T04:17:41.639Z,19.67
2018-04-10T04:20:21.923Z,21.10
2018-04-10T04:22:49.520Z,19.00
2018-04-10T04:25:17.149Z,19.80
2018-04-10T04:27:44.770Z,20.07
2018-04-10T04:30:13.149Z,19.30
2018-04-10T04:32:40.741Z,20.80
2018-04-10T04:35:08.353Z,21.90
2018-04-10T04:37:35.946Z,19.63
2018-04-10T04:40:04.331Z,21.10
2018-04-10T04:42:32.689Z,20.53
2018-04-10T04:45:00.313Z,20.37
2018-04-10T04:47:27.912Z,20.07
2018-04-10T04:49:55.537Z,20.07
2018-04-10T04:52:23.138Z,20.57
2018-04-10T04:54:50.761Z,21.33
2018-04-10T04:57:18.353Z,21.70
2018-04-10T04:59:45.979Z,21.87
2018-04-10T05:02:13.575Z,22.07
2018-04-10T05:04:41.191Z,22.07
2018-04-10T05:07:08.778Z,23.03
2018-04-10T05:09:36.398Z,22.73
2018-04-10T05:12:03.990Z,21.03
2018-04-10T05:14:31.605Z,22.17
2018-04-10T05:16:59.207Z,22.10
2018-04-10T05:19:26.838Z,20.90
2018-04-10T05:21:54.445Z,21.23
2018-04-10T05:24:22.042Z,22.00
2018-04-10T05:26:50.421Z,22.20
2018-04-10T05:29:18.778Z,22.27
2018-04-10T05:31:46.398Z,21.77
2018-04-10T05:34:13.994Z,22.47
2018-04-10T05:36:41.621Z,23.67
2018-04-10T05:39:09.210Z,22.83
2018-04-10T05:41:36.829Z,21.87
2018-04-10T05:44:04.439Z,23.10
2018-04-10T05:46:32.063Z,22.70
2018-04-10T05:48:59.654Z,24.20
2018-04-10T05:51:27.630Z,22.53
2018-04-10T05:53:55.218Z,23.57
2018-04-10T05:56:23.632Z,20.77
2018-04-10T05:58:51.226Z,22.20
2018-04-10T06:01:18.844Z,23.50
2018-04-10T06:03:46.434Z,21.33
2018-04-10T06:06:14.049Z,22.47
2018-04-10T06:08:41.647Z,21.43
2018-04-10T06:11:09.269Z,22.00
2018-04-10T06:13:36.862Z,23.63
2018-04-10T06:16:04.482Z,22.13
2018-04-10T06:18:32.849Z,21.37
2018-04-10T06:21:01.247Z,22.53
2018-04-10T06:23:28.846Z,22.33
2018-04-10T06:25:56.442Z,23.53
2018-04-10T06:28:24.053Z,21.93
2018-04-10T06:30:51.646Z,21.57
2018-04-10T06:33:19.274Z,24.33
2018-04-10T06:35:46.872Z,23.20
2018-04-10T06:38:14.490Z,25.37
2018-04-10T06:40:42.094Z,23.50
2018-04-10T06:43:09.714Z,22.97
2018-04-10T06:45:37.298Z,22.60
2018-04-10T06:48:04.918Z,23.13
2018-04-10T06:50:32.514Z,21.93
2018-04-10T06:53:00.184Z,21.10
2018-04-10T06:55:27.758Z,21.43
2018-04-10T06:57:55.387Z,22.07
2018-04-10T07:00:22.977Z,22.83
2018-04-10T07:02:50.614Z,22.67
2018-04-10T07:05:18.199Z,21.97
2018-04-10T07:07:45.817Z,21.67
2018-04-10T07:10:13.419Z,20.70
2018-04-10T07:12:41.034Z,23.37
2018-04-10T07:15:08.637Z,22.37
2018-04-10T07:17:36.265Z,20.90
2018-04-10T07:20:03.858Z,23.50
2018-04-10T07:22:31.479Z,21.83
2018-04-10T07:24:59.070Z,22.60
2018-04-10T07:27:26.837Z,21.13
2018-04-10T07:29:54.430Z,20.70
2018-04-10T07:32:22.821Z,20.60
2018-04-10T07:34:51.178Z,19.13
2018-04-10T07:37:18.798Z,22.10
2018-04-10T07:39:46.415Z,20.67
2018-04-10T07:42:14.815Z,20.03
2018-04-10T07:44:42.410Z,20.10
2018-04-10T07:47:11.572Z,18.30
2018-04-10T07:49:39.170Z,21.40
2018-04-10T07:52:06.938Z,19.90
2018-04-10T07:54:34.562Z,20.87
2018-04-10T07:57:02.161Z,17.83
2018-04-10T07:59:29.781Z,18.27
2018-04-10T08:01:57.377Z,20.40
2018-04-10T08:04:24.989Z,21.00
2018-04-10T08:06:53.342Z,18.33
2018-04-10T08:09:20.965Z,17.67
2018-04-10T08:11:48.564Z,18.13
2018-04-10T08:14:16.191Z,19.60
2018-04-10T08:16:43.785Z,22.57
2018-04-10T08:19:11.403Z,20.53
2018-04-10T08:21:39.002Z,21.70
2018-04-10T08:24:07.401Z,19.50
2018-04-10T08:26:35.754Z,19.70
2018-04-10T08:29:03.370Z,19.40
2018-04-10T08:31:30.966Z,16.90
2018-04-10T08:33:58.588Z,19.80
2018-04-10T08:36:26.191Z,18.07
2018-04-10T08:38:53.817Z,20.30
2018-04-10T08:41:21.410Z,17.17
2018-04-10T08:43:49.026Z,19.50
2018-04-10T08:46:16.627Z,16.60
2018-04-10T08:48:44.251Z,15.40
2018-04-10T08:51:11.839Z,18.87
2018-04-10T08:53:39.461Z,19.67
2018-04-10T08:56:07.049Z,20.20
2018-04-10T08:58:34.666Z,18.20
2018-04-10T09:01:03.032Z,20.47
2018-04-10T09:03:30.669Z,19.90
2018-04-10T09:05:58.265Z,18.47
2018-04-10T09:08:26.662Z,18.90
2018-04-10T09:10:54.277Z,17.30
2018-04-10T09:13:21.916Z,18.57
2018-04-10T09:15:49.515Z,19.47
2018-04-10T09:18:17.147Z,21.80
2018-04-10T09:20:44.748Z,20.07
2018-04-10T09:23:13.105Z,21.70
2018-04-10T09:25:40.963Z,20.23
2018-04-10T09:28:08.838Z,19.23
2018-04-10T09:30:36.700Z,17.80
2018-04-10T09:33:04.568Z,20.10
2018-04-10T09:35:32.208Z,19.50
2018-04-10T09:37:59.940Z,18.70
2018-04-10T09:40:27.561Z,21.10
2018-04-10T09:42:56.663Z,20.33
2018-04-10T09:45:24.282Z,17.53
2018-04-10T09:47:51.881Z,18.30
2018-04-10T09:50:19.498Z,19.20
2018-04-10T09:52:47.094Z,16.97
2018-04-10T09:55:14.842Z,18.33
2018-04-10T09:57:42.500Z,18.97
2018-04-10T10:00:10.154Z,15.07
2018-04-10T10:02:37.743Z,16.83
2018-04-10T10:05:05.520Z,16.40
2018-04-10T10:07:33.109Z,19.10
2018-04-10T10:10:01.490Z,19.60
2018-04-10T10:12:29.096Z,19.67
2018-04-10T10:14:56.722Z,19.77
2018-04-10T10:17:24.322Z,22.30
2018-04-10T10:19:51.999Z,16.13
2018-04-10T10:22:19.582Z,17.30
2018-04-10T10:24:47.965Z,15.50
2018-04-10T10:27:16.319Z,17.47
2018-04-10T10:29:45.448Z,18.77
2018-04-10T10:32:13.809Z,16.00
2018-04-10T10:34:42.197Z,17.37
2018-04-10T10:37:10.553Z,18.03
2018-04-10T10:39:38.166Z,17.77
2018-04-10T10:42:05.753Z,15.50
2018-04-10T10:44:33.411Z,14.80
2018-04-10T10:47:01.041Z,15.70
2018-04-10T10:49:28.661Z,18.23
2018-04-10T10:51:56.506Z,17.27
2018-04-10T10:54:24.110Z,17.40
2018-04-10T10:56:52.493Z,17.73
2018-04-10T10:59:20.846Z,18.20
2018-04-10T11:01:48.475Z,18.50
2018-04-10T11:04:16.061Z,14.13
2018-04-10T11:06:43.683Z,15.07
2018-04-10T11:09:11.276Z,15.40
2018-04-10T11:11:38.894Z,16.83
2018-04-10T11:14:06.490Z,19.30
2018-04-10T11:16:34.122Z,17.83
2018-04-10T11:19:01.720Z,16.83
2018-04-10T11:21:29.338Z,14.20
2018-04-10T11:23:56.937Z,16.70
2018-04-10T11:26:24.553Z,12.87
2018-04-10T11:28:52.168Z,16.00
2018-04-10T11:31:19.791Z,17.43
2018-04-10T11:33:47.381Z,16.10
2018-04-10T11:36:15.138Z,15.90
2018-04-10T11:38:42.737Z,18.33
2018-04-10T11:41:11.136Z,18.17
2018-04-10T11:43:38.726Z,17.93
2018-04-10T11:46:06.494Z,16.80
2018-04-10T11:48:34.183Z,16.70
2018-04-10T11:51:01.850Z,14.87
2018-04-10T11:53:29.443Z,17.00
2018-04-10T11:55:57.058Z,17.87
2018-04-10T11:58:24.711Z,16.50
2018-04-10T12:00:52.328Z,12.37
2018-04-10T12:03:19.919Z,15.97
2018-04-10T12:05:47.538Z,16.57
2018-04-10T12:08:15.895Z,16.10
2018-04-10T12:10:43.515Z,15.50
2018-04-10T12:13:11.117Z,16.60
2018-04-10T12:15:38.722Z,19.13
2018-04-10T12:18:06.338Z,18.53
2018-04-10T12:20:35.432Z,20.67
2018-04-10T12:23:04.601Z,19.80
2018-04-10T12:25:32.273Z,19.67
2018-04-10T12:27:59.897Z,13.97
2018-04-10T12:30:27.490Z,21.57
2018-04-10T12:32:55.082Z,22.00
2018-04-10T12:35:23.465Z,25.43
2018-04-10T12:37:51.830Z,22.40
2018-04-10T12:40:19.556Z,19.80
2018-04-10T12:42:47.153Z,20.50
2018-04-10T12:45:14.888Z,20.33
2018-04-10T12:47:42.556Z,19.00
2018-04-10T12:50:10.141Z,19.50
2018-04-10T12:52:37.744Z,19.13
2018-04-10T12:55:05.447Z,19.90
2018-04-10T12:57:35.103Z,17.20
2018-04-10T13:00:03.521Z,24.03
2018-04-10T13:02:31.142Z,22.43
2018-04-10T13:04:58.738Z,20.30
2018-04-10T13:07:26.361Z,23.33
2018-04-10T13:09:53.974Z,22.93
2018-04-10T13:12:21.598Z,19.30
2018-04-10T13:14:49.192Z,16.80
2018-04-10T13:17:16.820Z,19.10
2018-04-10T13:19:44.410Z,15.57
2018-04-10T13:22:12.000Z,24.57
2018-04-10T13:24:39.616Z,22.60
2018-04-10T13:27:07.263Z,20.90
2018-04-10T13:29:34.874Z,21.70
2018-04-10T13:32:02.469Z,23.83
2018-04-10T13:34:30.095Z,23.47
2018-04-10T13:36:57.691Z,23.70
2018-04-10T13:39:25.339Z,21.40
2018-04-10T13:41:53.697Z,24.03
2018-04-10T13:44:22.060Z,22.90
2018-04-10T13:46:49.685Z,22.80
2018-04-10T13:49:17.283Z,20.97
2018-04-10T13:51:44.902Z,24.87
2018-04-10T13:54:12.489Z,24.60
2018-04-10T13:56:40.118Z,23.33
2018-04-10T13:59:07.723Z,21.60
2018-04-10T14:01:35.322Z,27.00
2018-04-10T14:04:03.715Z,25.53
2018-04-10T14:06:31.303Z,23.47
2018-04-10T14:08:58.913Z,24.30
2018-04-10T14:11:27.287Z,23.37
2018-04-10T14:13:54.906Z,22.60
2018-04-10T14:16:22.496Z,23.77
2018-04-10T14:18:50.137Z,25.60
2018-04-10T14:21:17.732Z,26.50
2018-04-10T14:23:45.318Z,21.67
2018-04-10T14:26:12.950Z,24.80
2018-04-10T14:28:40.560Z,23.63
2018-04-10T14:31:08.347Z,23.83
2018-04-10T14:33:35.952Z,24.23
2018-04-10T14:36:04.336Z,23.40
2018-04-10T14:38:32.695Z,24.87
2018-04-10T14:41:00.323Z,23.57
2018-04-10T14:43:27.922Z,24.40
2018-04-10T14:45:56.282Z,23.40
2018-04-10T14:48:25.397Z,23.90
2018-04-10T14:50:53.759Z,24.67
2018-04-10T14:53:21.377Z,23.40
2018-04-10T14:55:48.988Z,22.17
2018-04-10T14:58:16.615Z,21.63
2018-04-10T15:00:44.211Z,20.17
2018-04-10T15:03:13.314Z,22.80
2018-04-10T15:05:41.706Z,23.23
2018-04-10T15:08:10.062Z,20.40
2018-04-10T15:10:38.422Z,19.40
2018-04-10T15:13:06.050Z,22.10
2018-04-10T15:15:33.646Z,22.73
2018-04-10T15:18:01.266Z,22.13
2018-04-10T15:20:29.430Z,18.10
2018-04-10T15:22:57.053Z,22.40
2018-04-10T15:25:24.648Z,21.73
2018-04-10T15:27:52.569Z,19.47
2018-04-10T15:30:20.229Z,23.73
2018-04-10T15:32:47.992Z,20.30
2018-04-10T15:35:15.674Z,24.20
2018-04-10T15:37:44.068Z,23.23
2018-04-10T15:40:12.724Z,22.20
2018-04-10T15:42:40.491Z,22.03
2018-04-10T15:45:08.233Z,19.80
2018-04-10T15:47:35.926Z,22.40
2018-04-10T15:50:03.658Z,21.97
2018-04-10T15:52:31.405Z,21.70
2018-04-10T15:54:59.298Z,22.50
2018-04-10T15:57:27.096Z,20.40
2018-04-10T15:59:55.522Z,24.87
2018-04-10T16:02:23.194Z,20.10
2018-04-10T16:04:50.981Z,21.50
2018-04-10T16:07:18.601Z,19.37
2018-04-10T16:09:46.195Z,22.30
2018-04-10T16:12:13.806Z,22.53
2018-04-10T16:14:42.160Z,20.20
2018-04-10T16:17:09.773Z,21.30
2018-04-10T16:19:37.358Z,23.77
2018-04-10T16:22:04.956Z,19.23
2018-04-10T16:24:33.341Z,21.40
2018-04-10T16:27:01.698Z,21.40
2018-04-10T16:29:29.317Z,20.27
2018-04-10T16:31:56.908Z,18.50
2018-04-10T16:34:24.533Z,21.07
2018-04-10T16:36:52.130Z,20.37
2018-04-10T16:39:19.859Z,19.83
2018-04-10T16:41:47.465Z,21.50
2018-04-10T16:44:15.831Z,22.10
2018-04-10T16:46:43.569Z,18.83
2018-04-10T16:49:11.163Z,19.10
2018-04-10T16:51:38.783Z,20.77
2018-04-10T16:54:06.375Z,21.10
2018-04-10T16:56:34.002Z,19.50
2018-04-10T16:59:01.600Z,19.03
2018-04-10T17:01:29.203Z,20.83
2018-04-10T17:03:56.835Z,19.40
2018-04-10T17:06:25.202Z,20.47
2018-04-10T17:08:53.591Z,19.37
2018-04-10T17:11:21.222Z,18.67
2018-04-10T17:13:48.831Z,18.23
2018-04-10T17:16:17.888Z,17.10
2018-04-10T17:18:45.654Z,19.23
2018-04-10T17:21:13.258Z,19.03
2018-04-10T17:23:41.177Z,16.67
2018-04-10T17:26:09.044Z,18.30
2018-04-10T17:28:36.906Z,17.77
2018-04-10T17:31:04.781Z,19.37
2018-04-10T17:33:32.682Z,17.47
2018-04-10T17:38:32.082Z,16.87
2018-04-10T17:40:59.896Z,18.30
2018-04-10T17:43:27.795Z,17.90
2018-04-10T17:45:55.435Z,18.57
2018-04-10T17:48:23.104Z,15.30
2018-04-10T17:50:51.792Z,15.80
2018-04-10T17:53:20.477Z,16.80
2018-04-10T17:55:48.342Z,18.90
2018-04-10T17:58:16.017Z,18.40
2018-04-10T18:00:43.650Z,19.27
2018-04-10T18:03:11.242Z,17.73
2018-04-10T18:05:38.835Z,16.60
2018-04-10T18:08:07.226Z,17.60
2018-04-10T18:10:35.607Z,17.30
2018-04-10T18:13:03.998Z,17.50
2018-04-10T18:15:31.598Z,14.60
2018-04-10T18:17:59.202Z,13.17
2018-04-10T18:20:27.585Z,17.10
2018-04-10T18:22:55.954Z,15.50
2018-04-10T18:25:24.335Z,16.43
2018-04-10T18:27:52.881Z,16.60
2018-04-10T18:30:20.507Z,14.60
2018-04-10T18:32:48.100Z,14.87
2018-04-10T18:35:15.726Z,14.17
2018-04-10T18:37:43.321Z,15.20
2018-04-10T18:40:10.941Z,13.67
2018-04-10T18:42:38.543Z,17.60
2018-04-10T18:45:06.179Z,16.00
2018-04-10T18:47:33.779Z,17.90
2018-04-10T18:50:01.533Z,16.30
2018-04-10T18:52:29.296Z,15.33
2018-04-10T18:54:57.178Z,15.40
2018-04-10T18:57:25.030Z,17.37
2018-04-10T18:59:52.897Z,15.20
2018-04-10T19:02:20.772Z,14.20
2018-04-10T19:04:48.636Z,15.83
2018-04-10T19:07:16.494Z,14.17
2018-04-10T19:09:44.365Z,17.50
2018-04-10T19:12:12.241Z,15.43
2018-04-10T19:14:39.994Z,15.00
2018-04-10T19:17:07.867Z,16.80
2018-04-10T19:19:35.833Z,13.90
2018-04-10T19:22:03.703Z,15.50
2018-04-10T19:24:31.877Z,13.73
2018-04-10T19:26:59.680Z,14.93
2018-04-10T19:29:28.737Z,16.00
2018-04-10T19:31:56.338Z,14.20
2018-04-10T19:34:24.870Z,23.80
2018-04-10T19:36:52.479Z,15.33
2018-04-10T19:39:20.847Z,13.87
2018-04-10T19:41:49.236Z,14.03
2018-04-10T19:44:17.593Z,16.03
2018-04-10T19:46:45.216Z,16.87
2018-04-10T19:49:12.814Z,16.40
2018-04-10T19:51:40.446Z,17.03
2018-04-10T19:54:08.046Z,18.10
2018-04-10T19:56:36.441Z,15.30
2018-04-10T19:59:04.061Z,13.43
2018-04-10T20:01:31.653Z,17.97
2018-04-10T20:04:00.043Z,17.07
2018-04-10T20:06:27.642Z,18.67
2018-04-10T20:08:55.244Z,17.30
2018-04-10T20:11:23.641Z,18.83
2018-04-10T20:13:51.241Z,19.60
2018-04-10T20:16:18.838Z,20.83
2018-04-10T20:18:46.454Z,18.50
2018-04-10T20:21:14.134Z,17.13
2018-04-10T20:23:41.750Z,14.73
2018-04-10T20:26:09.338Z,19.30
2018-04-10T20:28:36.970Z,16.53
2018-04-10T20:31:04.568Z,16.20
2018-04-10T20:33:32.213Z,16.40
2018-04-10T20:35:59.813Z,17.00
2018-04-10T20:38:27.410Z,17.10
2018-04-10T20:40:55.794Z,15.70
2018-04-10T20:43:23.437Z,15.03
2018-04-10T20:45:51.867Z,16.37
2018-04-10T20:48:19.463Z,14.83
2018-04-10T20:50:47.092Z,18.27
2018-04-10T20:53:14.677Z,17.57
2018-04-10T20:55:42.307Z,15.27
2018-04-10T20:58:09.903Z,16.20
2018-04-10T21:00:37.503Z,19.40
2018-04-10T21:03:05.122Z,15.10
2018-04-10T21:05:32.719Z,16.17
2018-04-10T21:08:00.368Z,15.50
2018-04-10T21:10:28.727Z,17.23
2018-04-10T21:12:56.317Z,18.70
2018-04-10T21:15:24.707Z,16.03
2018-04-10T21:17:52.302Z,15.60
2018-04-10T21:20:19.920Z,14.30
2018-04-10T21:22:47.519Z,14.90
2018-04-10T21:25:15.140Z,14.80
2018-04-10T21:27:42.734Z,17.37
2018-04-10T21:30:10.357Z,15.30
2018-04-10T21:32:38.709Z,16.57
2018-04-10T21:35:06.335Z,14.70
2018-04-10T21:37:33.929Z,15.83
2018-04-10T21:40:01.549Z,15.80
2018-04-10T21:42:29.143Z,16.13
2018-04-10T21:44:57.050Z,15.57
2018-04-10T21:47:25.403Z,13.43
2018-04-10T21:49:52.994Z,16.10
2018-04-10T21:52:20.613Z,12.77
2018-04-10T21:54:48.209Z,13.83
2018-04-10T21:57:16.589Z,10.60
2018-04-10T21:59:44.950Z,12.77
2018-04-10T22:02:13.343Z,13.47
2018-04-10T22:04:41.876Z,13.20
2018-04-10T22:07:09.490Z,13.53
2018-04-10T22:09:37.842Z,12.63
2018-04-10T22:12:05.462Z,13.00
2018-04-10T22:14:33.068Z,12.30
2018-04-10T22:17:00.686Z,9.93
2018-04-10T22:19:28.281Z,12.77
2018-04-10T22:21:55.902Z,13.13
2018-04-10T22:24:23.494Z,12.47
2018-04-10T22:26:51.116Z,10.80
2018-04-10T22:29:18.711Z,11.00
2018-04-10T22:31:46.334Z,12.07
2018-04-10T22:34:13.898Z,11.93
2018-04-10T22:36:41.522Z,12.77
2018-04-10T22:39:09.118Z,12.00
2018-04-10T22:41:36.754Z,12.17
2018-04-10T22:44:04.341Z,12.40
2018-04-10T22:46:31.979Z,13.23
2018-04-10T22:48:59.574Z,11.97
2018-04-10T22:51:27.210Z,10.37
2018-04-10T22:53:54.798Z,10.80
2018-04-10T22:56:22.394Z,12.07
2018-04-10T22:58:50.018Z,10.90
2018-04-10T23:01:17.618Z,11.83
2018-04-10T23:03:45.242Z,11.80
2018-04-10T23:06:12.846Z,10.40
2018-04-10T23:08:40.474Z,11.33
2018-04-10T23:11:08.093Z,12.10
2018-04-10T23:13:35.712Z,10.30
2018-04-10T23:16:03.308Z,11.50
2018-04-10T23:18:30.935Z,11.30
2018-04-10T23:20:58.538Z,11.37
2018-04-10T23:23:26.154Z,10.27
2018-04-10T23:25:53.745Z,11.17
2018-04-10T23:28:22.136Z,10.23
2018-04-10T23:30:49.738Z,12.40
2018-04-10T23:33:17.355Z,10.50
2018-04-10T23:35:45.718Z,9.87
2018-04-10T23:38:14.110Z,10.43
2018-04-10T23:40:42.470Z,9.20
2018-04-10T23:43:10.081Z,10.20
2018-04-10T23:45:37.684Z,9.77
2018-04-10T23:48:05.311Z,9.83
2018-04-10T23:50:32.906Z,10.87
2018-04-10T23:53:00.538Z,8.87
2018-04-10T23:55:28.190Z,12.00
2018-04-10T23:57:55.802Z,12.63
